sensor_id;sensor_type;location;lat;lon;timestamp;temperature;humidity
71082;SHT31;58740;50.672;18.690;2023-10-08T00:00:47;13.49;79.91
71082;SHT31;58740;50.672;18.690;2023-10-08T00:03:35;13.47;79.89
71082;SHT31;58740;50.672;18.690;2023-10-08T00:06:04;13.44;79.84
71082;SHT31;58740;50.672;18.690;2023-10-08T00:08:38;13.41;79.83
71082;SHT31;58740;50.672;18.690;2023-10-08T00:11:05;13.40;79.98
71082;SHT31;58740;50.672;18.690;2023-10-08T00:13:36;13.37;79.56
71082;SHT31;58740;50.672;18.690;2023-10-08T00:16:10;13.32;79.67
71082;SHT31;58740;50.672;18.690;2023-10-08T00:18:43;13.29;79.89
71082;SHT31;58740;50.672;18.690;2023-10-08T00:21:17;13.29;79.97
71082;SHT31;58740;50.672;18.690;2023-10-08T00:23:52;13.28;79.98
71082;SHT31;58740;50.672;18.690;2023-10-08T00:26:19;13.27;79.77
71082;SHT31;58740;50.672;18.690;2023-10-08T00:29:02;13.22;79.59
71082;SHT31;58740;50.672;18.690;2023-10-08T00:31:42;13.16;79.71
71082;SHT31;58740;50.672;18.690;2023-10-08T00:34:16;13.14;79.66
71082;SHT31;58740;50.672;18.690;2023-10-08T00:36:46;13.11;79.56
71082;SHT31;58740;50.672;18.690;2023-10-08T00:39:14;13.08;79.56
71082;SHT31;58740;50.672;18.690;2023-10-08T00:41:43;13.07;79.63
71082;SHT31;58740;50.672;18.690;2023-10-08T00:44:12;13.05;79.65
71082;SHT31;58740;50.672;18.690;2023-10-08T00:46:42;13.05;79.55
71082;SHT31;58740;50.672;18.690;2023-10-08T00:49:16;13.02;79.49
71082;SHT31;58740;50.672;18.690;2023-10-08T00:51:49;12.98;79.56
71082;SHT31;58740;50.672;18.690;2023-10-08T00:54:34;12.93;79.61
71082;SHT31;58740;50.672;18.690;2023-10-08T00:57:18;12.93;79.79
71082;SHT31;58740;50.672;18.690;2023-10-08T00:59:56;12.92;79.69
71082;SHT31;58740;50.672;18.690;2023-10-08T01:02:25;12.92;79.43
71082;SHT31;58740;50.672;18.690;2023-10-08T01:04:56;12.90;79.55
71082;SHT31;58740;50.672;18.690;2023-10-08T01:07:23;12.90;79.56
71082;SHT31;58740;50.672;18.690;2023-10-08T01:09:51;12.89;79.63
71082;SHT31;58740;50.672;18.690;2023-10-08T01:12:18;12.91;79.73
71082;SHT31;58740;50.672;18.690;2023-10-08T01:14:53;12.86;79.36
71082;SHT31;58740;50.672;18.690;2023-10-08T01:17:21;12.81;79.55
71082;SHT31;58740;50.672;18.690;2023-10-08T01:19:53;12.77;79.60
71082;SHT31;58740;50.672;18.690;2023-10-08T01:22:26;12.73;79.66
71082;SHT31;58740;50.672;18.690;2023-10-08T01:24:55;12.72;79.85
71082;SHT31;58740;50.672;18.690;2023-10-08T01:27:22;12.70;79.79
71082;SHT31;58740;50.672;18.690;2023-10-08T01:29:50;12.71;79.89
71082;SHT31;58740;50.672;18.690;2023-10-08T01:32:18;12.69;79.89
71082;SHT31;58740;50.672;18.690;2023-10-08T01:34:47;12.67;79.57
71082;SHT31;58740;50.672;18.690;2023-10-08T01:37:14;12.62;79.40
71082;SHT31;58740;50.672;18.690;2023-10-08T01:39:45;12.59;79.52
71082;SHT31;58740;50.672;18.690;2023-10-08T01:42:16;12.51;79.11
71082;SHT31;58740;50.672;18.690;2023-10-08T01:44:47;12.43;79.30
71082;SHT31;58740;50.672;18.690;2023-10-08T01:47:16;12.39;79.43
71082;SHT31;58740;50.672;18.690;2023-10-08T01:49:43;12.38;79.55
71082;SHT31;58740;50.672;18.690;2023-10-08T01:52:12;12.34;79.46
71082;SHT31;58740;50.672;18.690;2023-10-08T01:54:48;12.29;79.47
71082;SHT31;58740;50.672;18.690;2023-10-08T01:57:16;12.24;79.43
71082;SHT31;58740;50.672;18.690;2023-10-08T01:59:43;12.20;79.62
71082;SHT31;58740;50.672;18.690;2023-10-08T02:02:10;12.15;79.49
71082;SHT31;58740;50.672;18.690;2023-10-08T02:04:36;12.09;79.53
71082;SHT31;58740;50.672;18.690;2023-10-08T02:07:03;12.07;79.75
71082;SHT31;58740;50.672;18.690;2023-10-08T02:09:34;12.05;79.82
71082;SHT31;58740;50.672;18.690;2023-10-08T02:12:00;12.05;80.05
71082;SHT31;58740;50.672;18.690;2023-10-08T02:14:27;12.06;79.78
71082;SHT31;58740;50.672;18.690;2023-10-08T02:16:58;12.02;79.64
71082;SHT31;58740;50.672;18.690;2023-10-08T02:19:30;11.98;79.82
71082;SHT31;58740;50.672;18.690;2023-10-08T02:21:57;11.96;79.99
71082;SHT31;58740;50.672;18.690;2023-10-08T02:24:24;11.94;79.94
71082;SHT31;58740;50.672;18.690;2023-10-08T02:26:52;11.94;79.94
71082;SHT31;58740;50.672;18.690;2023-10-08T02:29:28;11.92;79.84
71082;SHT31;58740;50.672;18.690;2023-10-08T02:31:56;11.94;79.85
71082;SHT31;58740;50.672;18.690;2023-10-08T02:34:23;11.93;79.70
71082;SHT31;58740;50.672;18.690;2023-10-08T02:36:49;11.92;79.71
71082;SHT31;58740;50.672;18.690;2023-10-08T02:39:18;11.91;79.70
71082;SHT31;58740;50.672;18.690;2023-10-08T02:41:51;11.88;79.74
71082;SHT31;58740;50.672;18.690;2023-10-08T02:44:21;11.86;80.17
71082;SHT31;58740;50.672;18.690;2023-10-08T02:46:49;11.87;80.12
71082;SHT31;58740;50.672;18.690;2023-10-08T02:49:16;11.89;80.21
71082;SHT31;58740;50.672;18.690;2023-10-08T02:51:50;11.92;80.18
71082;SHT31;58740;50.672;18.690;2023-10-08T02:54:20;11.92;80.10
71082;SHT31;58740;50.672;18.690;2023-10-08T02:56:58;11.93;80.05
71082;SHT31;58740;50.672;18.690;2023-10-08T02:59:28;11.92;80.18
71082;SHT31;58740;50.672;18.690;2023-10-08T03:02:09;11.92;80.20
71082;SHT31;58740;50.672;18.690;2023-10-08T03:04:55;11.93;80.30
71082;SHT31;58740;50.672;18.690;2023-10-08T03:07:21;11.93;80.14
71082;SHT31;58740;50.672;18.690;2023-10-08T03:09:49;11.94;80.17
71082;SHT31;58740;50.672;18.690;2023-10-08T03:12:29;11.95;80.28
71082;SHT31;58740;50.672;18.690;2023-10-08T03:14:59;11.96;80.24
71082;SHT31;58740;50.672;18.690;2023-10-08T03:17:44;11.96;80.20
71082;SHT31;58740;50.672;18.690;2023-10-08T03:20:17;11.96;80.14
71082;SHT31;58740;50.672;18.690;2023-10-08T03:23:03;12.00;80.19
71082;SHT31;58740;50.672;18.690;2023-10-08T03:25:39;12.01;80.02
71082;SHT31;58740;50.672;18.690;2023-10-08T03:28:08;12.01;80.04
71082;SHT31;58740;50.672;18.690;2023-10-08T03:30:35;12.01;79.89
71082;SHT31;58740;50.672;18.690;2023-10-08T03:33:13;12.00;79.96
71082;SHT31;58740;50.672;18.690;2023-10-08T03:35:48;12.00;79.94
71082;SHT31;58740;50.672;18.690;2023-10-08T03:38:21;11.99;80.00
71082;SHT31;58740;50.672;18.690;2023-10-08T03:41:10;11.98;79.81
71082;SHT31;58740;50.672;18.690;2023-10-08T03:43:42;11.97;79.62
71082;SHT31;58740;50.672;18.690;2023-10-08T03:46:15;11.94;79.70
71082;SHT31;58740;50.672;18.690;2023-10-08T03:48:42;11.91;79.65
71082;SHT31;58740;50.672;18.690;2023-10-08T03:51:11;11.90;79.73
71082;SHT31;58740;50.672;18.690;2023-10-08T03:53:40;11.89;79.81
71082;SHT31;58740;50.672;18.690;2023-10-08T03:56:25;11.86;79.66
71082;SHT31;58740;50.672;18.690;2023-10-08T03:58:56;11.85;79.54
71082;SHT31;58740;50.672;18.690;2023-10-08T04:01:26;11.83;79.84
71082;SHT31;58740;50.672;18.690;2023-10-08T04:03:57;11.85;79.76
71082;SHT31;58740;50.672;18.690;2023-10-08T04:06:26;11.80;79.64
71082;SHT31;58740;50.672;18.690;2023-10-08T04:09:00;11.80;79.89
71082;SHT31;58740;50.672;18.690;2023-10-08T04:11:47;11.80;79.76
71082;SHT31;58740;50.672;18.690;2023-10-08T04:14:25;11.78;79.80
71082;SHT31;58740;50.672;18.690;2023-10-08T04:16:54;11.76;79.73
71082;SHT31;58740;50.672;18.690;2023-10-08T04:19:21;11.74;79.72
71082;SHT31;58740;50.672;18.690;2023-10-08T04:21:53;11.76;79.81
71082;SHT31;58740;50.672;18.690;2023-10-08T04:24:21;11.75;79.88
71082;SHT31;58740;50.672;18.690;2023-10-08T04:27:00;11.73;79.79
71082;SHT31;58740;50.672;18.690;2023-10-08T04:29:32;11.72;79.92
71082;SHT31;58740;50.672;18.690;2023-10-08T04:31:59;11.71;79.96
71082;SHT31;58740;50.672;18.690;2023-10-08T04:34:38;11.72;79.85
71082;SHT31;58740;50.672;18.690;2023-10-08T04:37:04;11.72;79.95
71082;SHT31;58740;50.672;18.690;2023-10-08T04:39:39;11.72;80.00
71082;SHT31;58740;50.672;18.690;2023-10-08T04:42:12;11.72;79.94
71082;SHT31;58740;50.672;18.690;2023-10-08T04:44:40;11.71;79.73
71082;SHT31;58740;50.672;18.690;2023-10-08T04:47:07;11.69;79.89
71082;SHT31;58740;50.672;18.690;2023-10-08T04:49:35;11.67;79.84
71082;SHT31;58740;50.672;18.690;2023-10-08T04:52:11;11.69;79.97
71082;SHT31;58740;50.672;18.690;2023-10-08T04:54:41;11.71;79.86
71082;SHT31;58740;50.672;18.690;2023-10-08T04:57:17;11.70;79.86
71082;SHT31;58740;50.672;18.690;2023-10-08T04:59:48;11.70;79.82
71082;SHT31;58740;50.672;18.690;2023-10-08T05:02:23;11.68;79.82
71082;SHT31;58740;50.672;18.690;2023-10-08T05:05:01;11.69;79.70
71082;SHT31;58740;50.672;18.690;2023-10-08T05:07:48;11.67;79.60
71082;SHT31;58740;50.672;18.690;2023-10-08T05:10:15;11.66;79.46
71082;SHT31;58740;50.672;18.690;2023-10-08T05:13:02;11.65;79.57
71082;SHT31;58740;50.672;18.690;2023-10-08T05:15:32;11.63;79.45
71082;SHT31;58740;50.672;18.690;2023-10-08T05:18:13;11.59;79.37
71082;SHT31;58740;50.672;18.690;2023-10-08T05:20:50;11.55;79.48
71082;SHT31;58740;50.672;18.690;2023-10-08T05:23:18;11.54;79.54
71082;SHT31;58740;50.672;18.690;2023-10-08T05:25:55;11.56;79.25
71082;SHT31;58740;50.672;18.690;2023-10-08T05:28:24;11.54;79.25
71082;SHT31;58740;50.672;18.690;2023-10-08T05:30:51;11.54;79.26
71082;SHT31;58740;50.672;18.690;2023-10-08T05:33:37;11.52;79.29
71082;SHT31;58740;50.672;18.690;2023-10-08T05:36:22;11.50;79.45
71082;SHT31;58740;50.672;18.690;2023-10-08T05:39:02;11.50;79.32
71082;SHT31;58740;50.672;18.690;2023-10-08T05:41:48;11.53;79.24
71082;SHT31;58740;50.672;18.690;2023-10-08T05:44:18;11.52;79.16
71082;SHT31;58740;50.672;18.690;2023-10-08T05:46:44;11.52;78.93
71082;SHT31;58740;50.672;18.690;2023-10-08T05:49:37;11.49;79.00
71082;SHT31;58740;50.672;18.690;2023-10-08T05:52:20;11.46;78.92
71082;SHT31;58740;50.672;18.690;2023-10-08T05:55:07;11.47;78.96
71082;SHT31;58740;50.672;18.690;2023-10-08T05:57:44;11.44;78.87
71082;SHT31;58740;50.672;18.690;2023-10-08T06:00:18;11.41;78.98
71082;SHT31;58740;50.672;18.690;2023-10-08T06:03:04;11.41;79.00
71082;SHT31;58740;50.672;18.690;2023-10-08T06:05:36;11.41;79.12
71082;SHT31;58740;50.672;18.690;2023-10-08T06:08:09;11.42;78.97
71082;SHT31;58740;50.672;18.690;2023-10-08T06:10:41;11.41;78.76
71082;SHT31;58740;50.672;18.690;2023-10-08T06:13:08;11.37;78.86
71082;SHT31;58740;50.672;18.690;2023-10-08T06:15:43;11.35;78.96
71082;SHT31;58740;50.672;18.690;2023-10-08T06:18:16;11.31;79.09
71082;SHT31;58740;50.672;18.690;2023-10-08T06:20:45;11.29;79.22
71082;SHT31;58740;50.672;18.690;2023-10-08T06:23:14;11.29;79.45
71082;SHT31;58740;50.672;18.690;2023-10-08T06:25:45;11.30;79.54
71082;SHT31;58740;50.672;18.690;2023-10-08T06:28:14;11.31;79.48
71082;SHT31;58740;50.672;18.690;2023-10-08T06:30:46;11.33;79.30
71082;SHT31;58740;50.672;18.690;2023-10-08T06:33:14;11.32;79.37
71082;SHT31;58740;50.672;18.690;2023-10-08T06:35:42;11.34;79.41
71082;SHT31;58740;50.672;18.690;2023-10-08T06:38:31;11.32;79.36
71082;SHT31;58740;50.672;18.690;2023-10-08T06:41:00;11.30;79.57
71082;SHT31;58740;50.672;18.690;2023-10-08T06:44:10;11.29;79.45
71082;SHT31;58740;50.672;18.690;2023-10-08T06:46:40;11.28;79.51
71082;SHT31;58740;50.672;18.690;2023-10-08T06:49:08;11.30;79.79
71082;SHT31;58740;50.672;18.690;2023-10-08T06:51:41;11.32;79.73
71082;SHT31;58740;50.672;18.690;2023-10-08T06:54:09;11.33;79.69
71082;SHT31;58740;50.672;18.690;2023-10-08T06:56:40;11.38;79.86
71082;SHT31;58740;50.672;18.690;2023-10-08T06:59:12;11.45;79.92
71082;SHT31;58740;50.672;18.690;2023-10-08T07:01:40;11.51;79.74
71082;SHT31;58740;50.672;18.690;2023-10-08T07:04:12;11.54;79.64
71082;SHT31;58740;50.672;18.690;2023-10-08T07:06:40;11.58;79.83
71082;SHT31;58740;50.672;18.690;2023-10-08T07:09:09;11.63;79.59
71082;SHT31;58740;50.672;18.690;2023-10-08T07:11:55;11.65;79.53
71082;SHT31;58740;50.672;18.690;2023-10-08T07:14:26;11.69;79.66
71082;SHT31;58740;50.672;18.690;2023-10-08T07:16:59;11.74;79.74
71082;SHT31;58740;50.672;18.690;2023-10-08T07:19:28;11.74;79.29
71082;SHT31;58740;50.672;18.690;2023-10-08T07:22:03;11.76;79.45
71082;SHT31;58740;50.672;18.690;2023-10-08T07:24:54;11.78;79.32
71082;SHT31;58740;50.672;18.690;2023-10-08T07:27:21;11.77;79.11
71082;SHT31;58740;50.672;18.690;2023-10-08T07:29:56;11.77;79.39
71082;SHT31;58740;50.672;18.690;2023-10-08T07:32:25;11.79;79.28
71082;SHT31;58740;50.672;18.690;2023-10-08T07:34:51;11.83;79.35
71082;SHT31;58740;50.672;18.690;2023-10-08T07:37:23;11.86;78.56
71082;SHT31;58740;50.672;18.690;2023-10-08T07:39:52;11.89;77.96
71082;SHT31;58740;50.672;18.690;2023-10-08T07:42:20;11.88;77.01
71082;SHT31;58740;50.672;18.690;2023-10-08T07:44:47;11.87;77.09
71082;SHT31;58740;50.672;18.690;2023-10-08T07:47:16;11.89;77.01
71082;SHT31;58740;50.672;18.690;2023-10-08T07:49:42;11.89;76.61
71082;SHT31;58740;50.672;18.690;2023-10-08T07:52:12;11.88;76.37
71082;SHT31;58740;50.672;18.690;2023-10-08T07:54:41;11.90;76.62
71082;SHT31;58740;50.672;18.690;2023-10-08T07:57:08;11.97;76.52
71082;SHT31;58740;50.672;18.690;2023-10-08T07:59:52;12.04;76.87
71082;SHT31;58740;50.672;18.690;2023-10-08T08:02:21;12.06;76.53
71082;SHT31;58740;50.672;18.690;2023-10-08T08:04:52;11.99;74.89
71082;SHT31;58740;50.672;18.690;2023-10-08T08:07:20;11.87;74.99
71082;SHT31;58740;50.672;18.690;2023-10-08T08:09:51;11.79;74.74
71082;SHT31;58740;50.672;18.690;2023-10-08T08:12:24;11.78;74.08
71082;SHT31;58740;50.672;18.690;2023-10-08T08:14:54;11.78;72.58
71082;SHT31;58740;50.672;18.690;2023-10-08T08:17:21;11.77;72.59
71082;SHT31;58740;50.672;18.690;2023-10-08T08:19:49;11.79;72.93
71082;SHT31;58740;50.672;18.690;2023-10-08T08:22:19;11.82;73.13
71082;SHT31;58740;50.672;18.690;2023-10-08T08:24:51;11.86;72.66
71082;SHT31;58740;50.672;18.690;2023-10-08T08:27:25;11.84;72.23
71082;SHT31;58740;50.672;18.690;2023-10-08T08:29:57;11.85;72.79
71082;SHT31;58740;50.672;18.690;2023-10-08T08:32:39;11.88;71.20
71082;SHT31;58740;50.672;18.690;2023-10-08T08:35:07;11.88;71.24
71082;SHT31;58740;50.672;18.690;2023-10-08T08:37:35;11.90;70.74
71082;SHT31;58740;50.672;18.690;2023-10-08T08:40:04;11.89;69.28
71082;SHT31;58740;50.672;18.690;2023-10-08T08:42:51;11.80;68.22
71082;SHT31;58740;50.672;18.690;2023-10-08T08:45:24;11.70;67.76
71082;SHT31;58740;50.672;18.690;2023-10-08T08:47:51;11.71;68.58
71082;SHT31;58740;50.672;18.690;2023-10-08T08:50:19;11.76;68.41
71082;SHT31;58740;50.672;18.690;2023-10-08T08:52:47;11.81;68.35
71082;SHT31;58740;50.672;18.690;2023-10-08T08:55:14;11.86;68.80
71082;SHT31;58740;50.672;18.690;2023-10-08T08:57:44;11.86;67.57
71082;SHT31;58740;50.672;18.690;2023-10-08T09:00:15;11.77;63.47
71082;SHT31;58740;50.672;18.690;2023-10-08T09:02:44;11.70;64.29
71082;SHT31;58740;50.672;18.690;2023-10-08T09:05:13;11.68;64.27
71082;SHT31;58740;50.672;18.690;2023-10-08T09:08:01;11.69;63.38
71082;SHT31;58740;50.672;18.690;2023-10-08T09:10:32;11.69;61.59
71082;SHT31;58740;50.672;18.690;2023-10-08T09:13:05;11.68;60.14
71082;SHT31;58740;50.672;18.690;2023-10-08T09:15:37;11.67;61.33
71082;SHT31;58740;50.672;18.690;2023-10-08T09:18:04;11.70;62.29
71082;SHT31;58740;50.672;18.690;2023-10-08T09:20:32;11.76;62.07
71082;SHT31;58740;50.672;18.690;2023-10-08T09:23:11;11.79;60.98
71082;SHT31;58740;50.672;18.690;2023-10-08T09:25:47;11.84;62.48
71082;SHT31;58740;50.672;18.690;2023-10-08T09:28:19;11.90;61.53
71082;SHT31;58740;50.672;18.690;2023-10-08T09:30:47;11.92;59.68
71082;SHT31;58740;50.672;18.690;2023-10-08T09:33:15;11.95;60.33
71082;SHT31;58740;50.672;18.690;2023-10-08T09:35:43;11.99;59.21
71082;SHT31;58740;50.672;18.690;2023-10-08T09:38:12;12.04;59.75
71082;SHT31;58740;50.672;18.690;2023-10-08T09:40:39;12.08;59.94
71082;SHT31;58740;50.672;18.690;2023-10-08T09:43:10;12.08;57.93
71082;SHT31;58740;50.672;18.690;2023-10-08T09:45:42;12.08;58.86
71082;SHT31;58740;50.672;18.690;2023-10-08T09:48:17;12.10;58.68
71082;SHT31;58740;50.672;18.690;2023-10-08T09:50:48;12.15;58.31
71082;SHT31;58740;50.672;18.690;2023-10-08T09:53:22;12.18;58.23
71082;SHT31;58740;50.672;18.690;2023-10-08T09:56:14;12.17;56.46
71082;SHT31;58740;50.672;18.690;2023-10-08T09:58:44;12.18;58.22
71082;SHT31;58740;50.672;18.690;2023-10-08T10:01:15;12.21;58.06
71082;SHT31;58740;50.672;18.690;2023-10-08T10:03:45;12.22;54.80
71082;SHT31;58740;50.672;18.690;2023-10-08T10:06:17;12.23;56.68
71082;SHT31;58740;50.672;18.690;2023-10-08T10:08:45;12.27;57.52
71082;SHT31;58740;50.672;18.690;2023-10-08T10:11:15;12.29;56.07
71082;SHT31;58740;50.672;18.690;2023-10-08T10:13:45;12.26;54.51
71082;SHT31;58740;50.672;18.690;2023-10-08T10:16:19;12.22;54.09
71082;SHT31;58740;50.672;18.690;2023-10-08T10:18:50;12.21;54.54
71082;SHT31;58740;50.672;18.690;2023-10-08T10:21:28;12.20;53.14
71082;SHT31;58740;50.672;18.690;2023-10-08T10:23:59;12.23;54.63
71082;SHT31;58740;50.672;18.690;2023-10-08T10:26:31;12.27;53.39
71082;SHT31;58740;50.672;18.690;2023-10-08T10:31:38;12.27;52.70
71082;SHT31;58740;50.672;18.690;2023-10-08T10:34:11;12.28;52.60
71082;SHT31;58740;50.672;18.690;2023-10-08T10:36:44;12.26;52.15
71082;SHT31;58740;50.672;18.690;2023-10-08T10:39:15;12.21;51.57
71082;SHT31;58740;50.672;18.690;2023-10-08T10:41:53;12.17;52.04
71082;SHT31;58740;50.672;18.690;2023-10-08T10:44:24;12.16;52.66
71082;SHT31;58740;50.672;18.690;2023-10-08T10:46:51;12.18;52.52
71082;SHT31;58740;50.672;18.690;2023-10-08T10:49:18;12.19;52.68
71082;SHT31;58740;50.672;18.690;2023-10-08T10:51:57;12.19;52.36
71082;SHT31;58740;50.672;18.690;2023-10-08T10:54:24;12.19;52.56
71082;SHT31;58740;50.672;18.690;2023-10-08T10:56:51;12.17;52.60
71082;SHT31;58740;50.672;18.690;2023-10-08T10:59:33;12.12;52.46
71082;SHT31;58740;50.672;18.690;2023-10-08T11:02:09;12.10;54.10
71082;SHT31;58740;50.672;18.690;2023-10-08T11:04:47;12.12;53.14
71082;SHT31;58740;50.672;18.690;2023-10-08T11:07:14;12.16;53.02
71082;SHT31;58740;50.672;18.690;2023-10-08T11:09:47;12.20;51.90
71082;SHT31;58740;50.672;18.690;2023-10-08T11:12:14;12.23;51.07
71082;SHT31;58740;50.672;18.690;2023-10-08T11:14:46;12.23;52.05
71082;SHT31;58740;50.672;18.690;2023-10-08T11:19:43;12.28;51.31
71082;SHT31;58740;50.672;18.690;2023-10-08T11:22:12;12.28;50.19
71082;SHT31;58740;50.672;18.690;2023-10-08T11:24:43;12.23;47.66
71082;SHT31;58740;50.672;18.690;2023-10-08T11:27:14;12.16;48.49
71082;SHT31;58740;50.672;18.690;2023-10-08T11:29:55;12.15;47.83
71082;SHT31;58740;50.672;18.690;2023-10-08T11:32:24;12.11;46.64
71082;SHT31;58740;50.672;18.690;2023-10-08T11:34:56;12.07;47.09
71082;SHT31;58740;50.672;18.690;2023-10-08T11:37:44;12.02;46.48
71082;SHT31;58740;50.672;18.690;2023-10-08T11:40:23;12.02;47.49
71082;SHT31;58740;50.672;18.690;2023-10-08T11:43:15;12.02;46.38
71082;SHT31;58740;50.672;18.690;2023-10-08T11:45:44;11.99;46.45
71082;SHT31;58740;50.672;18.690;2023-10-08T11:48:17;11.99;47.24
71082;SHT31;58740;50.672;18.690;2023-10-08T11:50:52;12.04;49.35
71082;SHT31;58740;50.672;18.690;2023-10-08T11:53:18;12.09;49.18
71082;SHT31;58740;50.672;18.690;2023-10-08T11:55:45;12.14;49.34
71082;SHT31;58740;50.672;18.690;2023-10-08T11:58:14;12.18;47.73
71082;SHT31;58740;50.672;18.690;2023-10-08T12:00:46;12.20;47.64
71082;SHT31;58740;50.672;18.690;2023-10-08T12:03:18;12.21;48.20
71082;SHT31;58740;50.672;18.690;2023-10-08T12:05:45;12.24;48.59
71082;SHT31;58740;50.672;18.690;2023-10-08T12:08:18;12.24;47.29
71082;SHT31;58740;50.672;18.690;2023-10-08T12:10:48;12.22;46.24
71082;SHT31;58740;50.672;18.690;2023-10-08T12:13:20;12.22;47.82
71082;SHT31;58740;50.672;18.690;2023-10-08T12:15:55;12.23;47.29
71082;SHT31;58740;50.672;18.690;2023-10-08T12:18:44;12.25;47.57
71082;SHT31;58740;50.672;18.690;2023-10-08T12:21:15;12.25;46.60
71082;SHT31;58740;50.672;18.690;2023-10-08T12:23:43;12.28;47.62
71082;SHT31;58740;50.672;18.690;2023-10-08T12:26:11;12.29;46.29
71082;SHT31;58740;50.672;18.690;2023-10-08T12:28:45;12.30;45.60
71082;SHT31;58740;50.672;18.690;2023-10-08T12:31:17;12.29;45.35
71082;SHT31;58740;50.672;18.690;2023-10-08T12:33:48;12.24;44.05
71082;SHT31;58740;50.672;18.690;2023-10-08T12:36:20;12.21;44.10
71082;SHT31;58740;50.672;18.690;2023-10-08T12:38:49;12.18;44.21
71082;SHT31;58740;50.672;18.690;2023-10-08T12:41:23;12.20;45.77
71082;SHT31;58740;50.672;18.690;2023-10-08T12:43:53;12.24;45.17
71082;SHT31;58740;50.672;18.690;2023-10-08T12:46:20;12.25;44.91
71082;SHT31;58740;50.672;18.690;2023-10-08T12:48:51;12.27;45.23
71082;SHT31;58740;50.672;18.690;2023-10-08T12:51:21;12.30;45.23
71082;SHT31;58740;50.672;18.690;2023-10-08T12:53:53;12.34;45.19
71082;SHT31;58740;50.672;18.690;2023-10-08T12:56:47;12.32;44.33
71082;SHT31;58740;50.672;18.690;2023-10-08T12:59:20;12.30;44.45
71082;SHT31;58740;50.672;18.690;2023-10-08T13:01:48;12.26;44.48
71082;SHT31;58740;50.672;18.690;2023-10-08T13:04:20;12.26;45.31
71082;SHT31;58740;50.672;18.690;2023-10-08T13:06:55;12.25;44.62
71082;SHT31;58740;50.672;18.690;2023-10-08T13:09:23;12.22;45.05
71082;SHT31;58740;50.672;18.690;2023-10-08T13:11:51;12.22;45.33
71082;SHT31;58740;50.672;18.690;2023-10-08T13:14:17;12.20;45.07
71082;SHT31;58740;50.672;18.690;2023-10-08T13:16:44;12.18;45.31
71082;SHT31;58740;50.672;18.690;2023-10-08T13:19:11;12.14;45.23
71082;SHT31;58740;50.672;18.690;2023-10-08T13:21:37;12.10;45.12
71082;SHT31;58740;50.672;18.690;2023-10-08T13:24:04;12.06;45.49
71082;SHT31;58740;50.672;18.690;2023-10-08T13:26:39;12.04;46.40
71082;SHT31;58740;50.672;18.690;2023-10-08T13:29:06;12.04;46.16
71082;SHT31;58740;50.672;18.690;2023-10-08T13:31:35;12.05;46.26
71082;SHT31;58740;50.672;18.690;2023-10-08T13:34:04;12.09;46.67
71082;SHT31;58740;50.672;18.690;2023-10-08T13:36:35;12.12;46.83
71082;SHT31;58740;50.672;18.690;2023-10-08T13:39:06;12.17;46.25
71082;SHT31;58740;50.672;18.690;2023-10-08T13:41:38;12.18;46.37
71082;SHT31;58740;50.672;18.690;2023-10-08T13:44:07;12.19;46.53
71082;SHT31;58740;50.672;18.690;2023-10-08T13:46:34;12.21;47.21
71082;SHT31;58740;50.672;18.690;2023-10-08T13:49:04;12.23;46.42
71082;SHT31;58740;50.672;18.690;2023-10-08T13:51:32;12.17;46.64
71082;SHT31;58740;50.672;18.690;2023-10-08T13:54:01;12.16;47.49
71082;SHT31;58740;50.672;18.690;2023-10-08T13:56:29;12.14;47.81
71082;SHT31;58740;50.672;18.690;2023-10-08T13:58:59;12.13;48.70
71082;SHT31;58740;50.672;18.690;2023-10-08T14:01:38;12.09;48.07
71082;SHT31;58740;50.672;18.690;2023-10-08T14:04:12;12.07;48.18
71082;SHT31;58740;50.672;18.690;2023-10-08T14:06:46;12.01;48.22
71082;SHT31;58740;50.672;18.690;2023-10-08T14:09:20;11.95;47.80
71082;SHT31;58740;50.672;18.690;2023-10-08T14:12:08;11.90;48.95
71082;SHT31;58740;50.672;18.690;2023-10-08T14:14:36;11.88;49.13
71082;SHT31;58740;50.672;18.690;2023-10-08T14:17:07;11.87;48.89
71082;SHT31;58740;50.672;18.690;2023-10-08T14:19:36;11.86;48.71
71082;SHT31;58740;50.672;18.690;2023-10-08T14:22:12;11.83;48.66
71082;SHT31;58740;50.672;18.690;2023-10-08T14:24:45;11.82;48.69
71082;SHT31;58740;50.672;18.690;2023-10-08T14:27:13;11.81;49.66
71082;SHT31;58740;50.672;18.690;2023-10-08T14:29:41;11.82;48.89
71082;SHT31;58740;50.672;18.690;2023-10-08T14:32:11;11.84;48.96
71082;SHT31;58740;50.672;18.690;2023-10-08T14:34:37;11.85;48.94
71082;SHT31;58740;50.672;18.690;2023-10-08T14:37:13;11.90;49.38
71082;SHT31;58740;50.672;18.690;2023-10-08T14:39:58;11.93;49.42
71082;SHT31;58740;50.672;18.690;2023-10-08T14:42:43;11.95;49.32
71082;SHT31;58740;50.672;18.690;2023-10-08T14:45:26;11.98;49.61
71082;SHT31;58740;50.672;18.690;2023-10-08T14:47:57;12.00;48.49
71082;SHT31;58740;50.672;18.690;2023-10-08T14:50:25;11.98;49.78
71082;SHT31;58740;50.672;18.690;2023-10-08T14:52:59;12.00;49.80
71082;SHT31;58740;50.672;18.690;2023-10-08T14:55:31;11.99;48.82
71082;SHT31;58740;50.672;18.690;2023-10-08T14:58:02;11.99;49.27
71082;SHT31;58740;50.672;18.690;2023-10-08T15:00:34;11.96;48.81
71082;SHT31;58740;50.672;18.690;2023-10-08T15:03:05;11.94;49.76
71082;SHT31;58740;50.672;18.690;2023-10-08T15:05:32;11.93;49.25
71082;SHT31;58740;50.672;18.690;2023-10-08T15:07:59;11.90;49.71
71082;SHT31;58740;50.672;18.690;2023-10-08T15:10:26;11.88;49.94
71082;SHT31;58740;50.672;18.690;2023-10-08T15:12:52;11.84;49.72
71082;SHT31;58740;50.672;18.690;2023-10-08T15:15:19;11.82;50.13
71082;SHT31;58740;50.672;18.690;2023-10-08T15:17:49;11.80;49.69
71082;SHT31;58740;50.672;18.690;2023-10-08T15:20:17;11.74;49.92
71082;SHT31;58740;50.672;18.690;2023-10-08T15:22:46;11.67;50.27
71082;SHT31;58740;50.672;18.690;2023-10-08T15:25:16;11.64;50.96
71082;SHT31;58740;50.672;18.690;2023-10-08T15:27:44;11.61;51.53
71082;SHT31;58740;50.672;18.690;2023-10-08T15:30:14;11.57;51.40
71082;SHT31;58740;50.672;18.690;2023-10-08T15:32:44;11.54;52.73
71082;SHT31;58740;50.672;18.690;2023-10-08T15:35:12;11.48;53.54
71082;SHT31;58740;50.672;18.690;2023-10-08T15:37:42;11.46;53.38
71082;SHT31;58740;50.672;18.690;2023-10-08T15:40:10;11.45;53.79
71082;SHT31;58740;50.672;18.690;2023-10-08T15:42:47;11.44;54.17
71082;SHT31;58740;50.672;18.690;2023-10-08T15:45:20;11.44;53.09
71082;SHT31;58740;50.672;18.690;2023-10-08T15:47:48;11.43;52.80
71082;SHT31;58740;50.672;18.690;2023-10-08T15:50:18;11.43;52.12